createdAt,value
2022-10-24T00:01:57.236Z,68
2022-10-24T00:04:29.096Z,68
2022-10-24T00:07:00.215Z,68
2022-10-24T00:09:31.181Z,68
2022-10-24T00:12:00.933Z,68
2022-10-24T00:14:32.971Z,68
2022-10-24T00:17:04.093Z,68
2022-10-24T00:19:35.064Z,68
2022-10-24T00:22:06.108Z,68
2022-10-24T00:24:36.930Z,69
2022-10-24T00:27:08.166Z,69
2022-10-24T00:29:39.466Z,69
2022-10-24T00:32:10.527Z,69
2022-10-24T00:34:41.136Z,69
2022-10-24T00:37:11.979Z,69
2022-10-24T00:39:42.851Z,69
2022-10-24T00:42:14.213Z,69
2022-10-24T00:44:45.333Z,69
2022-10-24T00:47:14.294Z,69
2022-10-24T00:49:45.085Z,69
2022-10-24T00:52:16.485Z,69
2022-10-24T00:54:47.836Z,70
2022-10-24T00:57:21.541Z,70
2022-10-24T00:59:52.961Z,70
2022-10-24T01:02:24.151Z,70
2022-10-24T01:04:54.965Z,70
2022-10-24T01:07:25.880Z,70
2022-10-24T01:09:57.433Z,70
2022-10-24T01:12:28.713Z,70
2022-10-24T01:14:59.932Z,70
2022-10-24T01:17:30.584Z,70
2022-10-24T01:20:01.984Z,71
2022-10-24T01:22:32.986Z,71
2022-10-24T01:25:04.028Z,70
2022-10-24T01:27:35.341Z,70
2022-10-24T01:30:06.462Z,70
2022-10-24T01:32:38.182Z,71
2022-10-24T01:35:09.379Z,70
2022-10-24T01:37:41.922Z,71
2022-10-24T01:40:15.316Z,71
2022-10-24T01:42:46.036Z,71
2022-10-24T01:45:16.977Z,71
2022-10-24T01:47:48.022Z,71
2022-10-24T01:50:18.765Z,71
2022-10-24T01:52:49.706Z,71
2022-10-24T01:55:21.002Z,71
2022-10-24T01:57:51.987Z,71
2022-10-24T02:00:22.992Z,71
2022-10-24T02:02:54.064Z,71
2022-10-24T02:05:29.153Z,71
2022-10-24T02:07:59.870Z,71
2022-10-24T02:10:31.434Z,71
2022-10-24T02:13:03.266Z,71
2022-10-24T02:15:35.057Z,71
2022-10-24T02:18:05.804Z,71
2022-10-24T02:20:38.162Z,72
2022-10-24T02:23:09.284Z,72
2022-10-24T02:25:40.097Z,72
2022-10-24T02:28:14.190Z,71
2022-10-24T02:30:44.013Z,71
2022-10-24T02:33:15.356Z,72
2022-10-24T02:35:46.413Z,72
2022-10-24T02:38:18.807Z,72
2022-10-24T02:40:51.013Z,72
2022-10-24T02:43:23.286Z,72
2022-10-24T02:45:54.430Z,72
2022-10-24T02:48:25.887Z,72
2022-10-24T02:50:56.586Z,72
2022-10-24T02:53:28.487Z,72
2022-10-24T02:56:01.622Z,72
2022-10-24T02:58:32.745Z,72
2022-10-24T03:01:03.864Z,72
2022-10-24T03:03:34.459Z,72
2022-10-24T03:06:05.647Z,73
2022-10-24T03:08:36.481Z,72
2022-10-24T03:11:07.742Z,72
2022-10-24T03:13:40.141Z,73
2022-10-24T03:16:13.127Z,72
2022-10-24T03:18:46.047Z,72
2022-10-24T03:21:15.904Z,72
2022-10-24T03:23:47.023Z,72
2022-10-24T03:26:17.988Z,73
2022-10-24T03:28:50.955Z,73
2022-10-24T03:31:22.631Z,73
2022-10-24T03:33:53.459Z,73
2022-10-24T03:36:24.901Z,73
2022-10-24T03:38:56.259Z,73
2022-10-24T03:41:28.657Z,73
2022-10-24T03:44:00.137Z,73
2022-10-24T03:46:31.384Z,73
2022-10-24T03:51:33.263Z,73
2022-10-24T03:54:04.644Z,73
2022-10-24T03:56:36.003Z,73
2022-10-24T03:59:06.755Z,73
2022-10-24T04:01:38.518Z,73
2022-10-24T04:04:09.945Z,73
2022-10-24T04:06:40.637Z,73
2022-10-24T04:09:11.786Z,73
2022-10-24T04:11:42.393Z,73
2022-10-24T04:14:13.480Z,73
2022-10-24T04:16:45.829Z,73
2022-10-24T04:19:17.862Z,73
2022-10-24T04:21:49.902Z,73
2022-10-24T04:24:21.460Z,73
2022-10-24T04:26:52.087Z,73
2022-10-24T04:29:23.425Z,73
2022-10-24T04:31:54.321Z,73
2022-10-24T04:34:25.437Z,73
2022-10-24T04:36:57.330Z,73
2022-10-24T04:39:28.882Z,73
2022-10-24T04:41:59.141Z,73
2022-10-24T04:44:30.480Z,73
2022-10-24T04:47:01.808Z,73
2022-10-24T04:49:32.887Z,74
2022-10-24T04:52:04.844Z,74
2022-10-24T04:54:36.761Z,74
2022-10-24T04:57:07.543Z,74
2022-10-24T04:59:38.582Z,74
2022-10-24T05:02:09.495Z,74
2022-10-24T05:04:42.365Z,74
2022-10-24T05:07:13.986Z,74
2022-10-24T05:09:46.375Z,73
2022-10-24T05:12:17.111Z,73
2022-10-24T05:14:48.947Z,73
2022-10-24T05:17:21.239Z,73
2022-10-24T05:19:52.122Z,73
2022-10-24T05:22:23.074Z,73
2022-10-24T05:24:53.853Z,73
2022-10-24T05:27:25.137Z,73
2022-10-24T05:29:55.722Z,73
2022-10-24T05:32:26.709Z,73
2022-10-24T05:34:55.969Z,73
2022-10-24T05:37:27.573Z,74
2022-10-24T05:40:00.065Z,73
2022-10-24T05:42:35.321Z,73
2022-10-24T05:45:05.921Z,73
2022-10-24T05:47:36.683Z,73
2022-10-24T05:50:07.868Z,73
2022-10-24T05:52:41.232Z,73
2022-10-24T05:55:09.332Z,73
2022-10-24T05:57:40.437Z,73
2022-10-24T06:00:12.085Z,73
2022-10-24T06:02:43.760Z,73
2022-10-24T06:05:14.562Z,73
2022-10-24T06:07:45.218Z,72
2022-10-24T06:10:15.505Z,72
2022-10-24T06:12:47.258Z,72
2022-10-24T06:15:17.381Z,72
2022-10-24T06:17:49.016Z,71
2022-10-24T06:20:22.786Z,71
2022-10-24T06:22:53.812Z,71
2022-10-24T06:25:24.379Z,71
2022-10-24T06:27:56.323Z,70
2022-10-24T06:30:25.409Z,70
2022-10-24T06:32:56.149Z,70
2022-10-24T06:35:27.873Z,70
2022-10-24T06:37:59.897Z,69
2022-10-24T06:40:30.243Z,69
2022-10-24T06:43:01.277Z,69
2022-10-24T06:45:32.203Z,69
2022-10-24T06:48:04.180Z,69
2022-10-24T06:50:34.669Z,69
2022-10-24T06:53:06.117Z,68
2022-10-24T06:55:37.289Z,68
2022-10-24T06:58:08.163Z,68
2022-10-24T07:00:38.867Z,68
2022-10-24T07:03:09.596Z,68
2022-10-24T07:05:41.247Z,68
2022-10-24T07:08:12.384Z,68
2022-10-24T07:10:43.682Z,68
2022-10-24T07:13:14.414Z,68
2022-10-24T07:15:44.952Z,68
2022-10-24T07:18:15.798Z,68
2022-10-24T07:20:46.645Z,68
2022-10-24T07:23:17.383Z,67
2022-10-24T07:25:48.144Z,67
2022-10-24T07:28:18.955Z,67
2022-10-24T07:30:52.661Z,67
2022-10-24T07:33:25.756Z,67
2022-10-24T07:35:56.289Z,67
2022-10-24T07:38:27.508Z,67
2022-10-24T07:40:59.715Z,66
2022-10-24T07:43:30.801Z,66
2022-10-24T07:48:32.636Z,66
2022-10-24T07:51:04.391Z,65
2022-10-24T07:53:35.224Z,66
2022-10-24T07:56:06.239Z,66
2022-10-24T07:58:36.719Z,66
2022-10-24T08:01:07.322Z,66
2022-10-24T08:03:38.597Z,65
2022-10-24T08:06:10.511Z,65
2022-10-24T08:08:42.267Z,64
2022-10-24T08:11:13.882Z,64
2022-10-24T08:13:45.777Z,64
2022-10-24T08:16:16.454Z,64
2022-10-24T08:18:45.858Z,63
2022-10-24T08:21:16.306Z,61
2022-10-24T08:23:47.035Z,61
2022-10-24T08:26:17.971Z,60
2022-10-24T08:28:48.551Z,61
2022-10-24T08:31:19.446Z,60
2022-10-24T08:33:51.106Z,60
2022-10-24T08:36:21.845Z,59
2022-10-24T08:38:54.119Z,60
2022-10-24T08:41:27.269Z,59
2022-10-24T08:43:58.623Z,58
2022-10-24T08:46:30.220Z,58
2022-10-24T08:49:01.985Z,57
2022-10-24T08:51:34.223Z,57
2022-10-24T08:54:05.010Z,58
2022-10-24T08:56:35.681Z,57
2022-10-24T08:59:04.911Z,58
2022-10-24T09:01:35.700Z,57
2022-10-24T09:04:06.426Z,57
2022-10-24T09:06:37.190Z,56
2022-10-24T09:09:07.707Z,58
2022-10-24T09:11:38.250Z,57
2022-10-24T09:14:09.081Z,57
2022-10-24T09:16:40.025Z,57
2022-10-24T09:19:10.585Z,57
2022-10-24T09:21:41.545Z,55
2022-10-24T09:24:13.672Z,55
2022-10-24T09:26:44.475Z,55
2022-10-24T09:29:17.741Z,56
2022-10-24T09:31:48.973Z,55
2022-10-24T09:34:19.576Z,55
2022-10-24T09:36:50.521Z,53
2022-10-24T09:39:21.343Z,54
2022-10-24T09:41:52.296Z,53
2022-10-24T09:44:22.678Z,54
2022-10-24T09:46:53.759Z,54
2022-10-24T09:49:24.281Z,53
2022-10-24T09:51:54.944Z,52
2022-10-24T09:54:25.540Z,51
2022-10-24T09:56:56.425Z,53
2022-10-24T09:59:28.983Z,51
2022-10-24T10:02:00.240Z,51
2022-10-24T10:04:30.414Z,50
2022-10-24T10:07:01.602Z,49
2022-10-24T10:09:31.901Z,50
2022-10-24T10:12:03.503Z,49
2022-10-24T10:14:34.012Z,50
2022-10-24T10:17:04.622Z,49
2022-10-24T10:19:35.656Z,49
2022-10-24T10:22:06.519Z,49
2022-10-24T10:24:37.168Z,47
2022-10-24T10:27:07.851Z,48
2022-10-24T10:29:38.672Z,50
2022-10-24T10:32:09.451Z,49
2022-10-24T10:34:39.781Z,48
2022-10-24T10:37:10.307Z,47
2022-10-24T10:39:43.108Z,48
2022-10-24T10:42:11.341Z,47
2022-10-24T10:44:42.324Z,47
2022-10-24T10:47:13.930Z,48
2022-10-24T10:49:44.769Z,48
2022-10-24T10:52:15.237Z,47
2022-10-24T10:54:46.122Z,47
2022-10-24T10:57:17.401Z,50
2022-10-24T10:59:47.230Z,48
2022-10-24T11:02:19.239Z,48
2022-10-24T11:04:50.066Z,48
2022-10-24T11:07:20.671Z,47
2022-10-24T11:09:51.241Z,46
2022-10-24T11:12:22.013Z,48
2022-10-24T11:14:52.198Z,47
2022-10-24T11:17:23.116Z,47
2022-10-24T11:19:54.302Z,46
2022-10-24T11:22:26.205Z,47
2022-10-24T11:24:56.510Z,47
2022-10-24T11:27:28.500Z,46
2022-10-24T11:29:59.321Z,47
2022-10-24T11:32:30.014Z,46
2022-10-24T11:35:01.910Z,45
2022-10-24T11:37:32.969Z,45
2022-10-24T11:40:03.444Z,44
2022-10-24T11:42:34.941Z,45
2022-10-24T11:45:05.971Z,45
2022-10-24T11:47:35.030Z,45
2022-10-24T11:50:05.658Z,47
2022-10-24T11:52:36.246Z,46
2022-10-24T11:55:06.820Z,46
2022-10-24T11:57:37.509Z,46
2022-10-24T12:00:10.202Z,46
2022-10-24T12:02:40.589Z,46
2022-10-24T12:05:11.094Z,47
2022-10-24T12:07:42.102Z,45
2022-10-24T12:10:14.198Z,45
2022-10-24T12:12:44.984Z,46
2022-10-24T12:15:15.369Z,47
2022-10-24T12:17:46.732Z,46
2022-10-24T12:20:16.622Z,44
2022-10-24T12:22:48.824Z,45
2022-10-24T12:25:18.750Z,45
2022-10-24T12:27:49.030Z,46
2022-10-24T12:30:20.112Z,46
2022-10-24T12:35:36.842Z,45
2022-10-24T12:37:53.704Z,46
2022-10-24T12:40:25.271Z,45
2022-10-24T12:42:56.003Z,44
2022-10-24T12:45:27.250Z,46
2022-10-24T12:47:59.014Z,45
2022-10-24T12:50:30.650Z,46
2022-10-24T12:53:01.018Z,44
2022-10-24T12:55:32.755Z,44
2022-10-24T12:58:02.698Z,45
2022-10-24T13:00:33.569Z,45
2022-10-24T13:03:05.190Z,46
2022-10-24T13:05:36.462Z,44
2022-10-24T13:08:07.810Z,45
2022-10-24T13:10:40.324Z,44
2022-10-24T13:15:39.958Z,44
2022-10-24T13:18:10.500Z,43
2022-10-24T13:20:40.747Z,43
2022-10-24T13:23:11.275Z,43
2022-10-24T13:25:41.741Z,42
2022-10-24T13:28:12.173Z,43
2022-10-24T13:30:44.720Z,41
2022-10-24T13:33:14.502Z,43
2022-10-24T13:35:45.426Z,43
2022-10-24T13:38:17.031Z,45
2022-10-24T13:40:47.849Z,44
2022-10-24T13:43:18.655Z,43
2022-10-24T13:45:49.580Z,44
2022-10-24T13:48:18.656Z,43
2022-10-24T13:50:49.700Z,43
2022-10-24T13:53:26.659Z,44
2022-10-24T13:55:51.476Z,45
2022-10-24T13:58:22.238Z,46
2022-10-24T14:00:54.233Z,46
2022-10-24T14:03:24.650Z,46
2022-10-24T14:05:55.764Z,46
2022-10-24T14:08:25.938Z,46
2022-10-24T14:10:57.531Z,46
2022-10-24T14:13:28.845Z,47
2022-10-24T14:16:00.296Z,47
2022-10-24T14:18:31.965Z,47
2022-10-24T14:21:03.688Z,47
2022-10-24T14:23:33.148Z,47
2022-10-24T14:26:03.919Z,47
2022-10-24T14:28:36.898Z,48
2022-10-24T14:31:10.291Z,48
2022-10-24T14:33:41.557Z,49
2022-10-24T14:36:13.260Z,49
2022-10-24T14:38:44.645Z,49
2022-10-24T14:41:16.256Z,49
2022-10-24T14:43:47.399Z,49
2022-10-24T14:46:23.492Z,49
2022-10-24T14:48:51.920Z,50
2022-10-24T14:51:23.463Z,50
2022-10-24T14:53:54.688Z,50
2022-10-24T14:56:26.091Z,50
2022-10-24T14:58:57.333Z,50
2022-10-24T15:01:28.964Z,50
2022-10-24T15:04:01.206Z,51
2022-10-24T15:06:32.956Z,51
2022-10-24T15:09:04.794Z,51
2022-10-24T15:11:34.917Z,51
2022-10-24T15:14:07.507Z,51
2022-10-24T15:16:38.159Z,52
2022-10-24T15:19:09.283Z,51
2022-10-24T15:21:40.778Z,51
2022-10-24T15:24:12.574Z,51
2022-10-24T15:26:44.947Z,51
2022-10-24T15:29:16.107Z,52
2022-10-24T15:31:47.219Z,52
2022-10-24T15:34:18.892Z,52
2022-10-24T15:36:49.854Z,52
2022-10-24T15:39:21.726Z,52
2022-10-24T15:41:53.130Z,52
2022-10-24T15:44:24.960Z,52
2022-10-24T15:46:56.666Z,52
2022-10-24T15:49:28.657Z,53
2022-10-24T15:51:59.874Z,53
2022-10-24T15:54:32.313Z,54
2022-10-24T15:57:05.407Z,54
2022-10-24T15:59:35.923Z,55
2022-10-24T16:02:07.010Z,54
2022-10-24T16:04:38.107Z,54
2022-10-24T16:07:10.295Z,55
2022-10-24T16:09:41.752Z,55
2022-10-24T16:12:12.568Z,55
2022-10-24T16:14:44.907Z,55
2022-10-24T16:17:16.895Z,55
2022-10-24T16:19:46.565Z,56
2022-10-24T16:22:17.930Z,56
2022-10-24T16:24:47.364Z,57
2022-10-24T16:27:18.493Z,58
2022-10-24T16:29:49.843Z,58
2022-10-24T16:34:50.684Z,59
2022-10-24T16:37:22.159Z,59
2022-10-24T16:39:53.478Z,60
2022-10-24T16:42:24.627Z,60
2022-10-24T16:44:59.073Z,60
2022-10-24T16:47:30.063Z,60
2022-10-24T16:50:00.946Z,60
2022-10-24T16:52:31.823Z,61
2022-10-24T16:55:03.984Z,60
2022-10-24T16:57:35.464Z,61
2022-10-24T17:00:06.825Z,61
2022-10-24T17:02:39.858Z,62
2022-10-24T17:05:11.115Z,62
2022-10-24T17:07:40.797Z,62
2022-10-24T17:10:10.744Z,62
2022-10-24T17:12:41.920Z,62
2022-10-24T17:15:14.184Z,62
2022-10-24T17:17:45.218Z,62
2022-10-24T17:20:16.710Z,62
2022-10-24T17:22:47.780Z,63
2022-10-24T17:25:19.094Z,63
2022-10-24T17:27:51.171Z,63
2022-10-24T17:30:22.255Z,63
2022-10-24T17:32:54.108Z,63
2022-10-24T17:35:25.737Z,63
2022-10-24T17:37:56.624Z,63
2022-10-24T17:40:27.804Z,63
2022-10-24T17:42:58.904Z,63
2022-10-24T17:45:30.379Z,64
2022-10-24T17:48:01.791Z,64
2022-10-24T17:50:32.971Z,64
2022-10-24T17:53:04.049Z,64
2022-10-24T17:55:45.501Z,64
2022-10-24T17:58:06.564Z,64
2022-10-24T18:00:39.236Z,64
2022-10-24T18:03:10.228Z,64
2022-10-24T18:05:41.288Z,64
2022-10-24T18:08:12.754Z,64
2022-10-24T18:10:47.383Z,64
2022-10-24T18:13:18.463Z,64
2022-10-24T18:15:49.543Z,64
2022-10-24T18:18:21.573Z,65
2022-10-24T18:20:54.594Z,64
2022-10-24T18:23:25.619Z,64
2022-10-24T18:25:57.026Z,64
2022-10-24T18:28:28.477Z,64
2022-10-24T18:31:02.931Z,64
2022-10-24T18:33:34.218Z,64
2022-10-24T18:36:07.049Z,64
2022-10-24T18:38:38.135Z,64
2022-10-24T18:41:09.594Z,65
2022-10-24T18:43:40.587Z,65
2022-10-24T18:46:12.712Z,65
2022-10-24T18:48:45.227Z,65
2022-10-24T18:51:16.896Z,65
2022-10-24T18:53:48.208Z,65
2022-10-24T18:56:21.209Z,65
2022-10-24T18:58:53.218Z,65
2022-10-24T19:01:24.932Z,65
2022-10-24T19:03:56.373Z,65
2022-10-24T19:06:28.099Z,65
2022-10-24T19:08:59.739Z,65
2022-10-24T19:11:31.169Z,65
2022-10-24T19:14:03.167Z,66
2022-10-24T19:16:34.440Z,66
2022-10-24T19:19:07.051Z,66
2022-10-24T19:21:38.333Z,66
2022-10-24T19:24:09.447Z,66
2022-10-24T19:26:41.091Z,67
2022-10-24T19:29:12.723Z,66
2022-10-24T19:31:44.827Z,66
2022-10-24T19:34:16.575Z,67
2022-10-24T19:36:47.943Z,67
2022-10-24T19:39:20.318Z,67
2022-10-24T19:41:51.717Z,67
2022-10-24T19:44:23.070Z,67
2022-10-24T19:46:55.384Z,67
2022-10-24T19:49:27.274Z,67
2022-10-24T19:52:00.843Z,67
2022-10-24T19:54:33.561Z,67
2022-10-24T19:57:05.899Z,67
2022-10-24T19:59:39.185Z,67
2022-10-24T20:02:10.437Z,67
2022-10-24T20:04:44.359Z,67
2022-10-24T20:07:14.478Z,67
2022-10-24T20:09:45.606Z,67
2022-10-24T20:12:16.599Z,67
2022-10-24T20:14:47.771Z,67
2022-10-24T20:17:21.264Z,67
2022-10-24T20:19:52.891Z,67
2022-10-24T20:22:29.111Z,68
2022-10-24T20:25:00.353Z,68
2022-10-24T20:27:31.692Z,68
2022-10-24T20:30:06.079Z,68
2022-10-24T20:32:37.961Z,68
2022-10-24T20:35:10.090Z,68
2022-10-24T20:37:41.409Z,68
2022-10-24T20:40:14.028Z,68
2022-10-24T20:42:45.203Z,68
2022-10-24T20:45:19.126Z,69
2022-10-24T20:47:48.109Z,69
2022-10-24T20:50:19.004Z,68
2022-10-24T20:52:50.084Z,68
2022-10-24T20:55:32.128Z,69
2022-10-24T20:57:53.004Z,69
2022-10-24T21:00:23.956Z,69
2022-10-24T21:02:55.303Z,69
2022-10-24T21:05:26.327Z,69
2022-10-24T21:07:58.873Z,69
2022-10-24T21:10:30.305Z,69
2022-10-24T21:13:01.501Z,69
2022-10-24T21:15:33.011Z,69
2022-10-24T21:18:04.323Z,69
2022-10-24T21:20:36.453Z,69
2022-10-24T21:23:07.855Z,69
2022-10-24T21:25:39.489Z,69
2022-10-24T21:28:10.980Z,69
2022-10-24T21:30:46.497Z,69
2022-10-24T21:33:18.097Z,70
2022-10-24T21:35:48.391Z,69
2022-10-24T21:38:19.847Z,69
2022-10-24T21:40:51.661Z,69
2022-10-24T21:43:23.441Z,69
2022-10-24T21:45:55.518Z,69
2022-10-24T21:48:26.716Z,70
2022-10-24T21:50:58.489Z,69
2022-10-24T21:53:30.923Z,69
2022-10-24T21:56:01.795Z,69
2022-10-24T21:58:32.800Z,69
2022-10-24T22:01:04.368Z,70
2022-10-24T22:03:35.045Z,70
2022-10-24T22:06:06.455Z,70
2022-10-24T22:08:37.418Z,70
2022-10-24T22:11:07.850Z,70
2022-10-24T22:13:38.546Z,70
2022-10-24T22:16:09.246Z,70
2022-10-24T22:18:39.801Z,70
2022-10-24T22:21:10.353Z,70
2022-10-24T22:23:41.365Z,70
2022-10-24T22:26:12.023Z,70
2022-10-24T22:28:41.862Z,69
2022-10-24T22:31:12.511Z,70
2022-10-24T22:33:43.893Z,70
2022-10-24T22:36:14.994Z,70
2022-10-24T22:38:45.853Z,70
2022-10-24T22:41:16.818Z,70
2022-10-24T22:43:47.861Z,70
2022-10-24T22:46:18.707Z,70
2022-10-24T22:48:48.130Z,69
2022-10-24T22:51:19.143Z,70
2022-10-24T22:53:50.201Z,70
2022-10-24T22:56:21.282Z,70
2022-10-24T22:58:52.449Z,70
2022-10-24T23:01:22.902Z,70
2022-10-24T23:03:53.746Z,70
2022-10-24T23:06:24.526Z,70
2022-10-24T23:08:55.541Z,70
2022-10-24T23:11:26.873Z,70
2022-10-24T23:13:57.543Z,70
2022-10-24T23:16:29.089Z,70
2022-10-24T23:19:00.260Z,70
2022-10-24T23:21:31.329Z,70
2022-10-24T23:24:02.580Z,70
2022-10-24T23:26:32.982Z,70
2022-10-24T23:29:03.907Z,70
2022-10-24T23:31:34.797Z,70
2022-10-24T23:34:05.613Z,70
2022-10-24T23:36:36.249Z,70
2022-10-24T23:39:07.324Z,70
2022-10-24T23:41:38.164Z,70
2022-10-24T23:44:08.901Z,70
2022-10-24T23:46:39.748Z,71
2022-10-24T23:49:10.711Z,71
2022-10-24T23:51:41.617Z,71
2022-10-24T23:54:12.520Z,71
2022-10-24T23:56:46.536Z,71
2022-10-24T23:59:18.617Z,71
